New Troy, MI (49119)

10:29 AM EST on February 13, 2016 (GMT -0500)
Sawyer, MI | | Change Station
CLOSE
Current Station
Personal Weather Station
Location: Three Oaks, MI
Elevation: 653 ft
Nearby Weather Stations

Elev 653 ft 41.87 °N, 86.58 °W | Updated 14 seconds ago

Snow
Snow
15.1 °F
Feels Like 15 °F
N
0.0
Wind Variable Wind from West
Gusts 0.0 mph

Today
High -- | Low -- °F
--% Chance of Precip.
Yesterday
High -- | Low -- °F
Precip. -- in
Pressure 30.56 in
Visibility 0.5 miles
Clouds
Windchill 15 °F
Dew Point 2 °F
Humidity 56%
Rainfall 0.00 in
Snow Depth Not available.
7:45 AM 6:16 PM
Waxing Crescent, 31% visible
METAR KSBN 131454Z 29011KT 1/2SM R27L/5500VP6000FT -SN FZFG VV014 M12/M14 A3050 RMK AO2 SLP347 P0001 60004 T11171139 53014
Pressure 30.56 in
Visibility 0.5 miles
Clouds
Windchill 15 °F
Dew Point 2 °F
Humidity 56%
Rainfall 0.00 in
Snow Depth Not available.
7:45 AM 6:16 PM
Waxing Crescent, 31% visible
METAR KSBN 131454Z 29011KT 1/2SM R27L/5500VP6000FT -SN FZFG VV014 M12/M14 A3050 RMK AO2 SLP347 P0001 60004 T11171139 53014

10-Day Weather Forecast

Almanac

Astronomy

Feb. 13, 2016 Rise Set
Actual Time
Civil Twilight
Nautical Twilight
Astronomical Twilight
Moon
Length of Visible Light
Length of Day
Tomorrow will be .
, % of the Moon is Illuminated

Today's Extremes

State Highs State Lows

Community

WunderPhotos

Upload Photos

1,892,580 photos uploaded!

WunderBlog® & News

Nearby

Air Quality

  Air Quality AQ Index Pollutant
Not available.

Snow Depth

Station Depth Elevation

Earthquake Activity

City Distance Mag. Time & Date
Minimum magnitude displayed is 2.5.

Coastal Water Temperatures

Place Temperature

Stations

Nearby Weather Stations

Station Location Temp. Windchill Dew Point Humidity Wind Precip. Elev Updated Type
                   

Watches & Warnings

Winter Weather Advisory
Issued: 2:20 AM CST Feb. 13, 2016 – National Weather Service

... Winter Weather Advisory remains in effect until 4 PM EST /3 PM
CST/ this afternoon...

Hazardous weather...

* lake effect snow showers will gradually diminish in coverage
   and intensity today.

* Areas of blowing and drifting snow is expected this morning.

* Additional accumulations of 1 to 3 inches expected.

* Wind chills as low as 5 below to 10 below zero expected this
   morning.

Impacts...

* snow covered slick roads and areas of blowing snow will result
   in hazardous driving conditions.

* Frostbite will be possible for anyone who is outside for
   prolonged periods this morning.

Precautionary/preparedness actions...

A Winter Weather Advisory for snow and blowing snow means that
visibilities will be limited due to a combination of falling and
blowing snow. Use caution when traveling... especially in open
areas.